Malone, Washington
Current Conditions -  °F | °C
As of 4:05 AM on Saturday 25 Oct 2014 (Local Time) from KOLM Reporting Station
Haze Haze  
Wind Chill: 45°   Ceiling: 700
Heat Index: 45°   Visibility: 0.75mi
Dew Point: 45°   Wind: 3mph
Humidity: 100%   Direction: 20°NNE
Pressure: 29.55"   Gusts: NA
Location:  46.96°N, 123.33°W
Report Text: KOLM 251105Z 02003KT 3/4SM BR FEW002 BKN007 07/07 A2955 RMK AO2 T00720072
Loading
Personal Weather Stations






























Interactive Weather Map
Tropical Storm Tracking
New forecast layout! Learn more

10-Day Weather Forecast

Advertisements
Track Severe Weather on mobile